sensor_id;sensor_type;location;lat;lon;timestamp;temperature;humidity
12276;DHT22;6200;48.144;11.424;2022-11-03T00:01:02;7.30;99.90
12276;DHT22;6200;48.144;11.424;2022-11-03T00:03:27;7.20;99.90
12276;DHT22;6200;48.144;11.424;2022-11-03T00:05:53;7.30;99.90
12276;DHT22;6200;48.144;11.424;2022-11-03T00:08:40;7.20;99.90
12276;DHT22;6200;48.144;11.424;2022-11-03T00:11:14;7.20;99.90
12276;DHT22;6200;48.144;11.424;2022-11-03T00:13:41;7.20;99.90
12276;DHT22;6200;48.144;11.424;2022-11-03T00:16:09;7.20;99.90
12276;DHT22;6200;48.144;11.424;2022-11-03T00:18:35;7.10;99.90
12276;DHT22;6200;48.144;11.424;2022-11-03T00:21:05;7.10;99.90
12276;DHT22;6200;48.144;11.424;2022-11-03T00:23:34;7.10;99.90
12276;DHT22;6200;48.144;11.424;2022-11-03T00:26:17;7.10;99.90
12276;DHT22;6200;48.144;11.424;2022-11-03T00:28:44;7.10;99.90
12276;DHT22;6200;48.144;11.424;2022-11-03T00:31:13;7.10;99.90
12276;DHT22;6200;48.144;11.424;2022-11-03T00:33:39;7.10;99.90
12276;DHT22;6200;48.144;11.424;2022-11-03T00:36:06;7.10;99.90
12276;DHT22;6200;48.144;11.424;2022-11-03T00:38:32;7.00;99.90
12276;DHT22;6200;48.144;11.424;2022-11-03T00:41:00;7.10;99.90
12276;DHT22;6200;48.144;11.424;2022-11-03T00:43:27;7.10;99.90
12276;DHT22;6200;48.144;11.424;2022-11-03T00:45:53;7.10;99.90
12276;DHT22;6200;48.144;11.424;2022-11-03T00:48:20;7.10;99.90
12276;DHT22;6200;48.144;11.424;2022-11-03T00:51:22;7.00;99.90
12276;DHT22;6200;48.144;11.424;2022-11-03T00:53:50;7.00;99.90
12276;DHT22;6200;48.144;11.424;2022-11-03T00:56:21;7.00;99.90
12276;DHT22;6200;48.144;11.424;2022-11-03T00:58:48;7.00;99.90
12276;DHT22;6200;48.144;11.424;2022-11-03T01:01:16;7.00;99.90
12276;DHT22;6200;48.144;11.424;2022-11-03T01:03:45;7.00;99.90
12276;DHT22;6200;48.144;11.424;2022-11-03T01:06:31;7.00;99.90
12276;DHT22;6200;48.144;11.424;2022-11-03T01:09:22;7.00;99.90
12276;DHT22;6200;48.144;11.424;2022-11-03T01:11:59;7.10;99.90
12276;DHT22;6200;48.144;11.424;2022-11-03T01:14:28;7.10;99.90
12276;DHT22;6200;48.144;11.424;2022-11-03T01:16:54;7.10;99.90
12276;DHT22;6200;48.144;11.424;2022-11-03T01:19:19;7.10;99.90
12276;DHT22;6200;48.144;11.424;2022-11-03T01:21:45;7.10;99.90
12276;DHT22;6200;48.144;11.424;2022-11-03T01:24:10;7.10;99.90
12276;DHT22;6200;48.144;11.424;2022-11-03T01:26:36;7.10;99.90
12276;DHT22;6200;48.144;11.424;2022-11-03T01:29:02;7.10;99.90
12276;DHT22;6200;48.144;11.424;2022-11-03T01:31:28;7.10;99.90
12276;DHT22;6200;48.144;11.424;2022-11-03T01:33:55;7.10;99.90
12276;DHT22;6200;48.144;11.424;2022-11-03T01:36:21;7.10;99.90
12276;DHT22;6200;48.144;11.424;2022-11-03T01:38:47;7.10;99.90
12276;DHT22;6200;48.144;11.424;2022-11-03T01:41:16;7.10;99.90
12276;DHT22;6200;48.144;11.424;2022-11-03T01:43:42;7.10;99.90
12276;DHT22;6200;48.144;11.424;2022-11-03T01:46:26;7.10;99.90
12276;DHT22;6200;48.144;11.424;2022-11-03T01:49:58;7.10;99.90
12276;DHT22;6200;48.144;11.424;2022-11-03T01:51:55;7.10;99.90
12276;DHT22;6200;48.144;11.424;2022-11-03T01:54:23;7.10;99.90
12276;DHT22;6200;48.144;11.424;2022-11-03T01:56:51;7.00;99.90
12276;DHT22;6200;48.144;11.424;2022-11-03T01:59:18;7.00;99.90
12276;DHT22;6200;48.144;11.424;2022-11-03T02:01:46;7.00;99.90
12276;DHT22;6200;48.144;11.424;2022-11-03T02:04:16;7.00;99.90
12276;DHT22;6200;48.144;11.424;2022-11-03T02:06:42;7.00;99.90
12276;DHT22;6200;48.144;11.424;2022-11-03T02:09:09;7.00;99.90
12276;DHT22;6200;48.144;11.424;2022-11-03T02:11:36;7.10;99.90
12276;DHT22;6200;48.144;11.424;2022-11-03T02:14:21;7.00;99.90
12276;DHT22;6200;48.144;11.424;2022-11-03T02:16:53;6.90;99.90
12276;DHT22;6200;48.144;11.424;2022-11-03T02:19:43;6.90;99.90
12276;DHT22;6200;48.144;11.424;2022-11-03T02:22:28;6.80;99.90
12276;DHT22;6200;48.144;11.424;2022-11-03T02:27:44;6.80;99.90
12276;DHT22;6200;48.144;11.424;2022-11-03T02:30:10;6.70;99.90
12276;DHT22;6200;48.144;11.424;2022-11-03T02:32:56;6.60;99.90
12276;DHT22;6200;48.144;11.424;2022-11-03T02:35:36;6.60;99.90
12276;DHT22;6200;48.144;11.424;2022-11-03T02:38:05;6.50;99.90
12276;DHT22;6200;48.144;11.424;2022-11-03T02:40:36;6.50;99.90
12276;DHT22;6200;48.144;11.424;2022-11-03T02:43:04;6.50;99.90
12276;DHT22;6200;48.144;11.424;2022-11-03T02:45:30;6.50;99.90
12276;DHT22;6200;48.144;11.424;2022-11-03T02:47:58;8.00;99.90
12276;DHT22;6200;48.144;11.424;2022-11-03T02:50:30;6.50;99.90
12276;DHT22;6200;48.144;11.424;2022-11-03T02:52:56;6.50;99.90
12276;DHT22;6200;48.144;11.424;2022-11-03T02:55:34;6.50;99.90
12276;DHT22;6200;48.144;11.424;2022-11-03T02:58:05;6.50;99.90
12276;DHT22;6200;48.144;11.424;2022-11-03T03:00:52;6.50;99.90
12276;DHT22;6200;48.144;11.424;2022-11-03T03:03:24;6.50;99.90
12276;DHT22;6200;48.144;11.424;2022-11-03T03:05:53;6.50;99.90
12276;DHT22;6200;48.144;11.424;2022-11-03T03:08:21;6.40;99.90
12276;DHT22;6200;48.144;11.424;2022-11-03T03:10:48;6.40;99.90
12276;DHT22;6200;48.144;11.424;2022-11-03T03:13:17;6.30;99.90
12276;DHT22;6200;48.144;11.424;2022-11-03T03:16:11;6.30;99.90
12276;DHT22;6200;48.144;11.424;2022-11-03T03:18:55;6.30;99.90
12276;DHT22;6200;48.144;11.424;2022-11-03T03:21:25;6.30;99.90
12276;DHT22;6200;48.144;11.424;2022-11-03T03:23:58;6.30;99.90
12276;DHT22;6200;48.144;11.424;2022-11-03T03:26:33;6.20;99.90
12276;DHT22;6200;48.144;11.424;2022-11-03T03:29:04;6.20;99.90
12276;DHT22;6200;48.144;11.424;2022-11-03T03:31:34;6.10;99.90
12276;DHT22;6200;48.144;11.424;2022-11-03T03:34:01;6.10;99.90
12276;DHT22;6200;48.144;11.424;2022-11-03T03:36:28;6.10;99.90
12276;DHT22;6200;48.144;11.424;2022-11-03T03:38:59;6.10;99.90
12276;DHT22;6200;48.144;11.424;2022-11-03T03:41:26;6.10;99.90
12276;DHT22;6200;48.144;11.424;2022-11-03T03:43:55;6.00;99.90
12276;DHT22;6200;48.144;11.424;2022-11-03T03:46:23;6.00;99.90
12276;DHT22;6200;48.144;11.424;2022-11-03T03:48:51;6.00;99.90
12276;DHT22;6200;48.144;11.424;2022-11-03T03:51:18;6.00;99.90
12276;DHT22;6200;48.144;11.424;2022-11-03T03:53:49;6.00;99.90
12276;DHT22;6200;48.144;11.424;2022-11-03T03:56:22;6.00;99.90
12276;DHT22;6200;48.144;11.424;2022-11-03T03:58:50;6.00;99.90
12276;DHT22;6200;48.144;11.424;2022-11-03T04:01:16;5.90;99.90
12276;DHT22;6200;48.144;11.424;2022-11-03T04:03:41;5.80;99.90
12276;DHT22;6200;48.144;11.424;2022-11-03T04:06:07;5.80;99.90
12276;DHT22;6200;48.144;11.424;2022-11-03T04:08:33;5.90;99.90
12276;DHT22;6200;48.144;11.424;2022-11-03T04:10:59;5.80;99.90
12276;DHT22;6200;48.144;11.424;2022-11-03T04:13:43;5.80;99.90
12276;DHT22;6200;48.144;11.424;2022-11-03T04:16:27;5.80;99.90
12276;DHT22;6200;48.144;11.424;2022-11-03T04:19:11;5.80;99.90
12276;DHT22;6200;48.144;11.424;2022-11-03T04:21:55;5.70;99.90
12276;DHT22;6200;48.144;11.424;2022-11-03T04:24:39;5.80;99.90
12276;DHT22;6200;48.144;11.424;2022-11-03T04:27:25;5.80;99.90
12276;DHT22;6200;48.144;11.424;2022-11-03T04:29:52;5.80;99.90
12276;DHT22;6200;48.144;11.424;2022-11-03T04:32:20;5.80;99.90
12276;DHT22;6200;48.144;11.424;2022-11-03T04:34:45;5.70;99.90
12276;DHT22;6200;48.144;11.424;2022-11-03T04:37:12;5.70;99.90
12276;DHT22;6200;48.144;11.424;2022-11-03T04:39:39;5.60;99.90
12276;DHT22;6200;48.144;11.424;2022-11-03T04:42:15;5.60;99.90
12276;DHT22;6200;48.144;11.424;2022-11-03T04:44:41;5.60;99.90
12276;DHT22;6200;48.144;11.424;2022-11-03T04:47:10;5.60;99.90
12276;DHT22;6200;48.144;11.424;2022-11-03T04:49:36;5.60;99.90
12276;DHT22;6200;48.144;11.424;2022-11-03T04:52:01;5.60;99.90
12276;DHT22;6200;48.144;11.424;2022-11-03T04:54:27;5.60;99.90
12276;DHT22;6200;48.144;11.424;2022-11-03T04:56:53;5.50;99.90
12276;DHT22;6200;48.144;11.424;2022-11-03T04:59:18;5.60;99.90
12276;DHT22;6200;48.144;11.424;2022-11-03T05:01:45;5.60;99.90
12276;DHT22;6200;48.144;11.424;2022-11-03T05:04:13;5.60;99.90
12276;DHT22;6200;48.144;11.424;2022-11-03T05:06:39;5.60;99.90
12276;DHT22;6200;48.144;11.424;2022-11-03T05:09:11;5.60;99.90
12276;DHT22;6200;48.144;11.424;2022-11-03T05:11:41;5.60;99.90
12276;DHT22;6200;48.144;11.424;2022-11-03T05:14:15;5.70;99.90
12276;DHT22;6200;48.144;11.424;2022-11-03T05:16:41;5.70;99.90
12276;DHT22;6200;48.144;11.424;2022-11-03T05:19:14;5.70;99.90
12276;DHT22;6200;48.144;11.424;2022-11-03T05:21:41;5.80;99.90
12276;DHT22;6200;48.144;11.424;2022-11-03T05:24:11;5.70;99.90
12276;DHT22;6200;48.144;11.424;2022-11-03T05:26:37;5.70;99.90
12276;DHT22;6200;48.144;11.424;2022-11-03T05:31:34;5.80;99.90
12276;DHT22;6200;48.144;11.424;2022-11-03T05:34:05;5.80;99.90
12276;DHT22;6200;48.144;11.424;2022-11-03T05:36:37;5.80;99.90
12276;DHT22;6200;48.144;11.424;2022-11-03T05:41:47;5.70;99.90
12276;DHT22;6200;48.144;11.424;2022-11-03T05:44:24;5.70;99.90
12276;DHT22;6200;48.144;11.424;2022-11-03T05:46:50;5.70;99.90
12276;DHT22;6200;48.144;11.424;2022-11-03T05:49:17;5.70;99.90
12276;DHT22;6200;48.144;11.424;2022-11-03T05:51:43;5.80;99.90
12276;DHT22;6200;48.144;11.424;2022-11-03T05:54:22;5.80;99.90
12276;DHT22;6200;48.144;11.424;2022-11-03T05:56:49;5.80;99.90
12276;DHT22;6200;48.144;11.424;2022-11-03T05:59:19;5.80;99.90
12276;DHT22;6200;48.144;11.424;2022-11-03T06:01:47;5.90;99.90
12276;DHT22;6200;48.144;11.424;2022-11-03T06:04:24;5.90;99.90
12276;DHT22;6200;48.144;11.424;2022-11-03T06:06:57;6.00;99.90
12276;DHT22;6200;48.144;11.424;2022-11-03T06:09:24;6.00;99.90
12276;DHT22;6200;48.144;11.424;2022-11-03T06:11:53;6.00;99.90
12276;DHT22;6200;48.144;11.424;2022-11-03T06:14:24;6.00;99.90
12276;DHT22;6200;48.144;11.424;2022-11-03T06:16:59;6.10;99.90
12276;DHT22;6200;48.144;11.424;2022-11-03T06:19:29;6.10;99.90
12276;DHT22;6200;48.144;11.424;2022-11-03T06:22:07;6.10;99.90
12276;DHT22;6200;48.144;11.424;2022-11-03T06:24:35;6.10;99.90
12276;DHT22;6200;48.144;11.424;2022-11-03T06:27:01;6.10;99.90
12276;DHT22;6200;48.144;11.424;2022-11-03T06:29:30;6.10;99.90
12276;DHT22;6200;48.144;11.424;2022-11-03T06:31:56;6.10;99.90
12276;DHT22;6200;48.144;11.424;2022-11-03T06:34:45;6.10;99.90
12276;DHT22;6200;48.144;11.424;2022-11-03T06:37:22;6.10;99.90
12276;DHT22;6200;48.144;11.424;2022-11-03T06:39:50;6.10;99.90
12276;DHT22;6200;48.144;11.424;2022-11-03T06:42:20;6.20;99.90
12276;DHT22;6200;48.144;11.424;2022-11-03T06:44:48;6.20;99.90
12276;DHT22;6200;48.144;11.424;2022-11-03T06:47:25;6.30;99.90
12276;DHT22;6200;48.144;11.424;2022-11-03T06:49:56;6.30;99.90
12276;DHT22;6200;48.144;11.424;2022-11-03T06:52:30;6.30;99.90
12276;DHT22;6200;48.144;11.424;2022-11-03T06:57:36;6.30;99.90
12276;DHT22;6200;48.144;11.424;2022-11-03T07:00:15;6.30;99.90
12276;DHT22;6200;48.144;11.424;2022-11-03T07:05:23;6.30;99.90
12276;DHT22;6200;48.144;11.424;2022-11-03T07:07:52;6.30;99.90
12276;DHT22;6200;48.144;11.424;2022-11-03T07:10:18;6.40;99.90
12276;DHT22;6200;48.144;11.424;2022-11-03T07:12:43;6.40;99.90
12276;DHT22;6200;48.144;11.424;2022-11-03T07:15:22;6.40;99.90
12276;DHT22;6200;48.144;11.424;2022-11-03T07:17:48;6.30;99.90
12276;DHT22;6200;48.144;11.424;2022-11-03T07:20:16;6.40;99.90
12276;DHT22;6200;48.144;11.424;2022-11-03T07:22:43;6.40;99.90
12276;DHT22;6200;48.144;11.424;2022-11-03T07:25:19;6.40;99.90
12276;DHT22;6200;48.144;11.424;2022-11-03T07:27:49;6.50;99.90
12276;DHT22;6200;48.144;11.424;2022-11-03T07:30:28;6.50;99.90
12276;DHT22;6200;48.144;11.424;2022-11-03T07:32:59;6.60;99.90
12276;DHT22;6200;48.144;11.424;2022-11-03T07:35:41;6.60;99.90
12276;DHT22;6200;48.144;11.424;2022-11-03T07:38:18;6.70;99.90
12276;DHT22;6200;48.144;11.424;2022-11-03T07:40:45;6.70;99.90
12276;DHT22;6200;48.144;11.424;2022-11-03T07:43:14;6.80;99.90
12276;DHT22;6200;48.144;11.424;2022-11-03T07:45:52;6.80;99.90
12276;DHT22;6200;48.144;11.424;2022-11-03T07:51:00;6.90;99.90
12276;DHT22;6200;48.144;11.424;2022-11-03T07:53:34;7.00;99.90
12276;DHT22;6200;48.144;11.424;2022-11-03T07:56:01;7.10;99.90
12276;DHT22;6200;48.144;11.424;2022-11-03T07:58:34;7.10;99.90
12276;DHT22;6200;48.144;11.424;2022-11-03T08:01:01;7.20;99.90
12276;DHT22;6200;48.144;11.424;2022-11-03T08:03:41;7.40;99.90
12276;DHT22;6200;48.144;11.424;2022-11-03T08:06:08;7.40;99.90
12276;DHT22;6200;48.144;11.424;2022-11-03T08:08:34;7.50;99.90
12276;DHT22;6200;48.144;11.424;2022-11-03T08:10:59;7.60;99.90
12276;DHT22;6200;48.144;11.424;2022-11-03T08:13:25;7.70;99.90
12276;DHT22;6200;48.144;11.424;2022-11-03T08:15:50;7.70;99.90
12276;DHT22;6200;48.144;11.424;2022-11-03T08:18:16;7.70;99.90
12276;DHT22;6200;48.144;11.424;2022-11-03T08:20:42;7.70;99.90
12276;DHT22;6200;48.144;11.424;2022-11-03T08:23:07;7.80;99.90
12276;DHT22;6200;48.144;11.424;2022-11-03T08:25:33;7.90;99.90
12276;DHT22;6200;48.144;11.424;2022-11-03T08:27:58;7.90;99.90
12276;DHT22;6200;48.144;11.424;2022-11-03T08:30:26;8.10;99.90
12276;DHT22;6200;48.144;11.424;2022-11-03T08:32:51;8.20;99.90
12276;DHT22;6200;48.144;11.424;2022-11-03T08:35:17;8.30;99.90
12276;DHT22;6200;48.144;11.424;2022-11-03T08:37:42;8.50;99.90
12276;DHT22;6200;48.144;11.424;2022-11-03T08:40:08;8.60;99.90
12276;DHT22;6200;48.144;11.424;2022-11-03T08:42:34;8.70;99.90
12276;DHT22;6200;48.144;11.424;2022-11-03T08:44:59;8.90;99.90
12276;DHT22;6200;48.144;11.424;2022-11-03T08:47:25;9.00;99.90
12276;DHT22;6200;48.144;11.424;2022-11-03T08:49:50;9.10;99.90
12276;DHT22;6200;48.144;11.424;2022-11-03T08:52:16;9.20;99.90
12276;DHT22;6200;48.144;11.424;2022-11-03T08:54:41;9.40;99.90
12276;DHT22;6200;48.144;11.424;2022-11-03T08:57:07;9.60;99.90
12276;DHT22;6200;48.144;11.424;2022-11-03T08:59:32;9.70;99.90
12276;DHT22;6200;48.144;11.424;2022-11-03T09:01:58;9.90;99.90
12276;DHT22;6200;48.144;11.424;2022-11-03T09:04:23;10.10;99.90
12276;DHT22;6200;48.144;11.424;2022-11-03T09:06:49;10.30;99.90
12276;DHT22;6200;48.144;11.424;2022-11-03T09:09:14;10.50;99.90
12276;DHT22;6200;48.144;11.424;2022-11-03T09:11:40;10.80;99.90
12276;DHT22;6200;48.144;11.424;2022-11-03T09:14:06;11.00;99.90
12276;DHT22;6200;48.144;11.424;2022-11-03T09:16:32;11.10;99.90
12276;DHT22;6200;48.144;11.424;2022-11-03T09:18:57;11.10;99.90
12276;DHT22;6200;48.144;11.424;2022-11-03T09:21:23;11.20;99.90
12276;DHT22;6200;48.144;11.424;2022-11-03T09:23:48;11.30;99.90
12276;DHT22;6200;48.144;11.424;2022-11-03T09:26:14;11.50;99.90
12276;DHT22;6200;48.144;11.424;2022-11-03T09:28:39;11.60;99.90
12276;DHT22;6200;48.144;11.424;2022-11-03T09:31:05;11.80;99.90
12276;DHT22;6200;48.144;11.424;2022-11-03T09:33:30;11.80;99.90
12276;DHT22;6200;48.144;11.424;2022-11-03T09:35:56;12.10;99.90
12276;DHT22;6200;48.144;11.424;2022-11-03T09:38:22;12.20;99.90
12276;DHT22;6200;48.144;11.424;2022-11-03T09:40:48;12.40;99.90
12276;DHT22;6200;48.144;11.424;2022-11-03T09:43:13;12.50;99.90
12276;DHT22;6200;48.144;11.424;2022-11-03T09:45:39;12.70;99.90
12276;DHT22;6200;48.144;11.424;2022-11-03T09:48:11;12.70;99.90
12276;DHT22;6200;48.144;11.424;2022-11-03T09:50:38;12.90;99.90
12276;DHT22;6200;48.144;11.424;2022-11-03T09:53:04;12.90;99.90
12276;DHT22;6200;48.144;11.424;2022-11-03T09:55:30;12.90;99.90
12276;DHT22;6200;48.144;11.424;2022-11-03T09:58:01;13.00;99.90
12276;DHT22;6200;48.144;11.424;2022-11-03T10:00:33;13.10;99.90
12276;DHT22;6200;48.144;11.424;2022-11-03T10:02:58;13.20;99.90
12276;DHT22;6200;48.144;11.424;2022-11-03T10:05:27;13.40;99.90
12276;DHT22;6200;48.144;11.424;2022-11-03T10:07:59;13.50;99.90
12276;DHT22;6200;48.144;11.424;2022-11-03T10:10:27;13.70;99.90
12276;DHT22;6200;48.144;11.424;2022-11-03T10:12:53;13.90;99.90
12276;DHT22;6200;48.144;11.424;2022-11-03T10:15:21;14.00;99.90
12276;DHT22;6200;48.144;11.424;2022-11-03T10:17:47;14.20;99.90
12276;DHT22;6200;48.144;11.424;2022-11-03T10:20:17;14.40;99.90
12276;DHT22;6200;48.144;11.424;2022-11-03T10:22:44;14.40;99.90
12276;DHT22;6200;48.144;11.424;2022-11-03T10:25:34;14.50;99.90
12276;DHT22;6200;48.144;11.424;2022-11-03T10:28:16;14.60;99.90
12276;DHT22;6200;48.144;11.424;2022-11-03T10:31:07;14.90;99.90
12276;DHT22;6200;48.144;11.424;2022-11-03T10:33:55;15.10;99.90
12276;DHT22;6200;48.144;11.424;2022-11-03T10:36:24;15.30;99.90
12276;DHT22;6200;48.144;11.424;2022-11-03T10:38:50;15.30;99.90
12276;DHT22;6200;48.144;11.424;2022-11-03T10:41:24;15.30;99.90
12276;DHT22;6200;48.144;11.424;2022-11-03T10:46:28;15.20;99.90
12276;DHT22;6200;48.144;11.424;2022-11-03T10:51:34;15.40;99.90
12276;DHT22;6200;48.144;11.424;2022-11-03T10:54:02;15.40;99.90
12276;DHT22;6200;48.144;11.424;2022-11-03T10:56:29;15.40;99.90
12276;DHT22;6200;48.144;11.424;2022-11-03T10:58:55;15.40;99.90
12276;DHT22;6200;48.144;11.424;2022-11-03T11:01:22;15.40;99.90
12276;DHT22;6200;48.144;11.424;2022-11-03T11:03:47;15.40;99.90
12276;DHT22;6200;48.144;11.424;2022-11-03T11:06:23;15.40;99.90
12276;DHT22;6200;48.144;11.424;2022-11-03T11:08:52;15.50;99.90
12276;DHT22;6200;48.144;11.424;2022-11-03T11:11:20;15.60;99.90
12276;DHT22;6200;48.144;11.424;2022-11-03T11:16:52;15.80;99.90
12276;DHT22;6200;48.144;11.424;2022-11-03T11:19:21;15.80;99.90
12276;DHT22;6200;48.144;11.424;2022-11-03T11:33:20;15.90;99.90
12276;DHT22;6200;48.144;11.424;2022-11-03T11:41:20;15.90;99.90
12276;DHT22;6200;48.144;11.424;2022-11-03T11:43:46;15.90;99.90
12276;DHT22;6200;48.144;11.424;2022-11-03T11:46:39;16.00;99.90
12276;DHT22;6200;48.144;11.424;2022-11-03T11:51:33;15.80;99.90
12276;DHT22;6200;48.144;11.424;2022-11-03T11:54:03;15.80;99.90
12276;DHT22;6200;48.144;11.424;2022-11-03T11:56:30;15.70;99.90
12276;DHT22;6200;48.144;11.424;2022-11-03T11:58:55;15.70;99.90
12276;DHT22;6200;48.144;11.424;2022-11-03T12:01:32;15.70;99.90
12276;DHT22;6200;48.144;11.424;2022-11-03T12:04:05;15.60;99.90
12276;DHT22;6200;48.144;11.424;2022-11-03T12:06:39;15.70;99.90
12276;DHT22;6200;48.144;11.424;2022-11-03T12:09:06;15.70;99.90
12276;DHT22;6200;48.144;11.424;2022-11-03T12:11:46;15.80;99.90
12276;DHT22;6200;48.144;11.424;2022-11-03T12:14:22;15.80;99.90
12276;DHT22;6200;48.144;11.424;2022-11-03T12:16:47;15.90;99.90
12276;DHT22;6200;48.144;11.424;2022-11-03T12:19:39;15.90;99.90
12276;DHT22;6200;48.144;11.424;2022-11-03T12:22:10;15.90;99.90
12276;DHT22;6200;48.144;11.424;2022-11-03T12:24:56;16.00;99.90
12276;DHT22;6200;48.144;11.424;2022-11-03T12:29:58;16.00;99.90
12276;DHT22;6200;48.144;11.424;2022-11-03T12:32:25;15.90;99.90
12276;DHT22;6200;48.144;11.424;2022-11-03T12:34:50;15.90;99.90
12276;DHT22;6200;48.144;11.424;2022-11-03T12:37:18;15.70;99.90
12276;DHT22;6200;48.144;11.424;2022-11-03T12:39:43;15.70;99.90
12276;DHT22;6200;48.144;11.424;2022-11-03T12:42:09;15.60;99.90
12276;DHT22;6200;48.144;11.424;2022-11-03T12:44:34;15.70;99.90
12276;DHT22;6200;48.144;11.424;2022-11-03T12:47:00;15.50;99.90
12276;DHT22;6200;48.144;11.424;2022-11-03T12:49:26;15.40;99.90
12276;DHT22;6200;48.144;11.424;2022-11-03T12:51:51;15.40;99.90
12276;DHT22;6200;48.144;11.424;2022-11-03T12:54:17;15.40;99.90
12276;DHT22;6200;48.144;11.424;2022-11-03T12:56:43;15.40;99.90
12276;DHT22;6200;48.144;11.424;2022-11-03T12:59:08;15.40;99.90
12276;DHT22;6200;48.144;11.424;2022-11-03T13:01:34;15.40;99.90
12276;DHT22;6200;48.144;11.424;2022-11-03T13:04:00;15.20;99.90
12276;DHT22;6200;48.144;11.424;2022-11-03T13:06:25;15.40;99.90
12276;DHT22;6200;48.144;11.424;2022-11-03T13:08:51;15.40;99.90
12276;DHT22;6200;48.144;11.424;2022-11-03T13:11:17;15.40;99.90
12276;DHT22;6200;48.144;11.424;2022-11-03T13:14:02;15.40;99.90
12276;DHT22;6200;48.144;11.424;2022-11-03T13:16:29;15.40;99.90
12276;DHT22;6200;48.144;11.424;2022-11-03T13:18:54;15.40;99.90
12276;DHT22;6200;48.144;11.424;2022-11-03T13:21:20;15.30;99.90
12276;DHT22;6200;48.144;11.424;2022-11-03T13:23:46;15.30;99.90
12276;DHT22;6200;48.144;11.424;2022-11-03T13:26:11;15.30;99.90
12276;DHT22;6200;48.144;11.424;2022-11-03T13:28:37;15.20;99.90
12276;DHT22;6200;48.144;11.424;2022-11-03T13:31:03;15.20;99.90
12276;DHT22;6200;48.144;11.424;2022-11-03T13:33:28;15.30;99.90
12276;DHT22;6200;48.144;11.424;2022-11-03T13:35:54;15.30;99.90
12276;DHT22;6200;48.144;11.424;2022-11-03T13:38:19;15.30;99.90
12276;DHT22;6200;48.144;11.424;2022-11-03T13:40:46;15.30;99.90
12276;DHT22;6200;48.144;11.424;2022-11-03T13:43:11;15.20;99.90
12276;DHT22;6200;48.144;11.424;2022-11-03T13:45:37;15.20;99.90
12276;DHT22;6200;48.144;11.424;2022-11-03T13:48:02;15.20;99.90
12276;DHT22;6200;48.144;11.424;2022-11-03T13:50:28;15.20;99.90
12276;DHT22;6200;48.144;11.424;2022-11-03T13:52:53;15.20;99.90
12276;DHT22;6200;48.144;11.424;2022-11-03T13:55:19;15.20;99.90
12276;DHT22;6200;48.144;11.424;2022-11-03T13:57:46;15.20;99.90
12276;DHT22;6200;48.144;11.424;2022-11-03T14:00:12;15.10;99.90
12276;DHT22;6200;48.144;11.424;2022-11-03T14:02:39;15.20;99.90
12276;DHT22;6200;48.144;11.424;2022-11-03T14:05:05;15.10;99.90
12276;DHT22;6200;48.144;11.424;2022-11-03T14:07:31;15.10;99.90
12276;DHT22;6200;48.144;11.424;2022-11-03T14:09:56;15.10;99.90
12276;DHT22;6200;48.144;11.424;2022-11-03T14:12:22;15.00;99.90
12276;DHT22;6200;48.144;11.424;2022-11-03T14:15:07;14.90;99.90
12276;DHT22;6200;48.144;11.424;2022-11-03T14:17:35;14.80;99.90
12276;DHT22;6200;48.144;11.424;2022-11-03T14:20:01;14.80;99.90
12276;DHT22;6200;48.144;11.424;2022-11-03T14:22:27;14.80;99.90
12276;DHT22;6200;48.144;11.424;2022-11-03T14:24:54;14.70;99.90
12276;DHT22;6200;48.144;11.424;2022-11-03T14:27:20;14.70;99.90
12276;DHT22;6200;48.144;11.424;2022-11-03T14:29:46;14.70;99.90
12276;DHT22;6200;48.144;11.424;2022-11-03T14:32:14;14.70;99.90
12276;DHT22;6200;48.144;11.424;2022-11-03T14:34:39;14.60;99.90
12276;DHT22;6200;48.144;11.424;2022-11-03T14:37:05;14.50;99.90
12276;DHT22;6200;48.144;11.424;2022-11-03T14:39:33;14.50;99.90
12276;DHT22;6200;48.144;11.424;2022-11-03T14:42:00;14.40;99.90
12276;DHT22;6200;48.144;11.424;2022-11-03T14:44:33;14.40;99.90
12276;DHT22;6200;48.144;11.424;2022-11-03T14:47:00;14.30;99.90
12276;DHT22;6200;48.144;11.424;2022-11-03T14:49:30;14.30;99.90
12276;DHT22;6200;48.144;11.424;2022-11-03T14:51:56;14.20;99.90
12276;DHT22;6200;48.144;11.424;2022-11-03T14:54:23;14.10;99.90
12276;DHT22;6200;48.144;11.424;2022-11-03T14:56:48;14.10;99.90
12276;DHT22;6200;48.144;11.424;2022-11-03T14:59:14;14.10;99.90
12276;DHT22;6200;48.144;11.424;2022-11-03T15:01:40;14.00;99.90
12276;DHT22;6200;48.144;11.424;2022-11-03T15:04:05;14.00;99.90
12276;DHT22;6200;48.144;11.424;2022-11-03T15:06:32;13.90;99.90
12276;DHT22;6200;48.144;11.424;2022-11-03T15:08:58;13.80;99.90
12276;DHT22;6200;48.144;11.424;2022-11-03T15:11:24;13.80;99.90
12276;DHT22;6200;48.144;11.424;2022-11-03T15:13:49;13.70;99.90
12276;DHT22;6200;48.144;11.424;2022-11-03T15:16:15;13.60;99.90
12276;DHT22;6200;48.144;11.424;2022-11-03T15:18:40;13.60;99.90
12276;DHT22;6200;48.144;11.424;2022-11-03T15:21:08;13.60;99.90
12276;DHT22;6200;48.144;11.424;2022-11-03T15:23:34;13.50;99.90
12276;DHT22;6200;48.144;11.424;2022-11-03T15:25:59;13.40;99.90
12276;DHT22;6200;48.144;11.424;2022-11-03T15:28:26;13.30;99.90
12276;DHT22;6200;48.144;11.424;2022-11-03T15:30:51;13.20;99.90
12276;DHT22;6200;48.144;11.424;2022-11-03T15:33:17;13.20;99.90
12276;DHT22;6200;48.144;11.424;2022-11-03T15:35:42;13.10;99.90
12276;DHT22;6200;48.144;11.424;2022-11-03T15:38:08;13.00;99.90
12276;DHT22;6200;48.144;11.424;2022-11-03T15:40:33;13.00;99.90
12276;DHT22;6200;48.144;11.424;2022-11-03T15:42:59;13.00;99.90
12276;DHT22;6200;48.144;11.424;2022-11-03T15:45:25;12.90;99.90
12276;DHT22;6200;48.144;11.424;2022-11-03T15:47:50;12.90;99.90
12276;DHT22;6200;48.144;11.424;2022-11-03T15:50:16;12.80;99.90
12276;DHT22;6200;48.144;11.424;2022-11-03T15:52:42;12.90;99.90
12276;DHT22;6200;48.144;11.424;2022-11-03T15:55:08;12.80;99.90
12276;DHT22;6200;48.144;11.424;2022-11-03T15:57:34;12.80;99.90
12276;DHT22;6200;48.144;11.424;2022-11-03T16:00:00;12.80;99.90
12276;DHT22;6200;48.144;11.424;2022-11-03T16:02:25;12.80;99.90
12276;DHT22;6200;48.144;11.424;2022-11-03T16:04:51;12.70;99.90
12276;DHT22;6200;48.144;11.424;2022-11-03T16:07:17;12.70;99.90
12276;DHT22;6200;48.144;11.424;2022-11-03T16:09:42;12.70;99.90
12276;DHT22;6200;48.144;11.424;2022-11-03T16:12:08;12.70;99.90
12276;DHT22;6200;48.144;11.424;2022-11-03T16:14:33;12.60;99.90
12276;DHT22;6200;48.144;11.424;2022-11-03T16:16:59;12.60;99.90
12276;DHT22;6200;48.144;11.424;2022-11-03T16:19:24;12.60;99.90
12276;DHT22;6200;48.144;11.424;2022-11-03T16:21:50;12.60;99.90
12276;DHT22;6200;48.144;11.424;2022-11-03T16:24:16;12.50;99.90
12276;DHT22;6200;48.144;11.424;2022-11-03T16:26:42;12.50;99.90
12276;DHT22;6200;48.144;11.424;2022-11-03T16:29:07;12.60;99.90
12276;DHT22;6200;48.144;11.424;2022-11-03T16:31:33;12.50;99.90
12276;DHT22;6200;48.144;11.424;2022-11-03T16:33:59;12.50;99.90
12276;DHT22;6200;48.144;11.424;2022-11-03T16:36:25;12.50;99.90
12276;DHT22;6200;48.144;11.424;2022-11-03T16:38:50;12.50;99.90